Terminal Aerodrome Forecast
Issued by NWS

Home | Current Version | Previous Version | Text Only | Print | Product List | Glossary On
Versions: 1 2 3 4 5 6 7 8 9 10 11 12 13 14 15 16 17 18 19 20 21
962
FTUS45 KTFX 271742
TAFHVR
TAF
KHVR 271742Z 2718/2818 08008KT P6SM SCT045 BKN090
     FM272100 09010KT P6SM SCT060 BKN110
     FM280600 VRB06KT P6SM SCT060 BKN110=

USA.gov is the U.S. government's official web portal to all federal, state and local government web resources and services.